sensor_id;sensor_type;location;lat;lon;timestamp;temperature;humidity
14378;DHT22;7272;53.668;9.578;2024-03-07T00:02:10;4.30;99.90
14378;DHT22;7272;53.668;9.578;2024-03-07T00:05:12;4.20;99.90
14378;DHT22;7272;53.668;9.578;2024-03-07T00:08:13;4.10;99.90
14378;DHT22;7272;53.668;9.578;2024-03-07T00:11:15;4.10;99.90
14378;DHT22;7272;53.668;9.578;2024-03-07T00:14:16;4.00;99.90
14378;DHT22;7272;53.668;9.578;2024-03-07T00:17:17;4.00;99.90
14378;DHT22;7272;53.668;9.578;2024-03-07T00:20:20;4.00;99.90
14378;DHT22;7272;53.668;9.578;2024-03-07T00:23:22;4.10;99.90
14378;DHT22;7272;53.668;9.578;2024-03-07T00:26:23;4.20;99.90
14378;DHT22;7272;53.668;9.578;2024-03-07T00:29:24;4.30;99.90
14378;DHT22;7272;53.668;9.578;2024-03-07T00:32:29;4.40;99.90
14378;DHT22;7272;53.668;9.578;2024-03-07T00:35:31;4.50;99.90
14378;DHT22;7272;53.668;9.578;2024-03-07T00:38:32;4.60;99.90
14378;DHT22;7272;53.668;9.578;2024-03-07T00:41:33;4.70;99.90
14378;DHT22;7272;53.668;9.578;2024-03-07T00:44:34;4.80;99.90
14378;DHT22;7272;53.668;9.578;2024-03-07T00:47:36;4.80;99.90
14378;DHT22;7272;53.668;9.578;2024-03-07T00:50:39;4.90;99.90
14378;DHT22;7272;53.668;9.578;2024-03-07T00:53:43;5.00;99.90
14378;DHT22;7272;53.668;9.578;2024-03-07T00:56:44;5.00;99.90
14378;DHT22;7272;53.668;9.578;2024-03-07T00:59:45;5.10;99.90
14378;DHT22;7272;53.668;9.578;2024-03-07T01:02:46;5.20;99.90
14378;DHT22;7272;53.668;9.578;2024-03-07T01:05:48;5.20;99.90
14378;DHT22;7272;53.668;9.578;2024-03-07T01:08:49;5.30;99.90
14378;DHT22;7272;53.668;9.578;2024-03-07T01:11:51;5.30;99.90
14378;DHT22;7272;53.668;9.578;2024-03-07T01:14:52;5.30;99.90
14378;DHT22;7272;53.668;9.578;2024-03-07T01:17:53;5.40;99.90
14378;DHT22;7272;53.668;9.578;2024-03-07T01:20:55;5.40;99.90
14378;DHT22;7272;53.668;9.578;2024-03-07T01:23:56;5.40;99.90
14378;DHT22;7272;53.668;9.578;2024-03-07T01:26:57;5.50;99.90
14378;DHT22;7272;53.668;9.578;2024-03-07T01:30:00;5.50;99.90
14378;DHT22;7272;53.668;9.578;2024-03-07T01:33:04;5.60;99.90
14378;DHT22;7272;53.668;9.578;2024-03-07T01:36:06;5.70;99.90
14378;DHT22;7272;53.668;9.578;2024-03-07T01:39:07;5.70;99.90
14378;DHT22;7272;53.668;9.578;2024-03-07T01:42:08;5.80;99.90
14378;DHT22;7272;53.668;9.578;2024-03-07T01:45:10;5.80;99.90
14378;DHT22;7272;53.668;9.578;2024-03-07T01:48:14;5.80;99.90
14378;DHT22;7272;53.668;9.578;2024-03-07T01:51:21;5.90;99.90
14378;DHT22;7272;53.668;9.578;2024-03-07T01:54:22;5.90;99.90
14378;DHT22;7272;53.668;9.578;2024-03-07T01:57:24;5.90;99.90
14378;DHT22;7272;53.668;9.578;2024-03-07T02:00:26;6.00;99.90
14378;DHT22;7272;53.668;9.578;2024-03-07T02:03:28;5.90;99.90
14378;DHT22;7272;53.668;9.578;2024-03-07T02:06:32;6.00;99.90
14378;DHT22;7272;53.668;9.578;2024-03-07T02:09:33;6.00;99.90
14378;DHT22;7272;53.668;9.578;2024-03-07T02:12:36;6.00;99.90
14378;DHT22;7272;53.668;9.578;2024-03-07T02:15:37;6.10;99.90
14378;DHT22;7272;53.668;9.578;2024-03-07T02:18:39;6.10;99.90
14378;DHT22;7272;53.668;9.578;2024-03-07T02:21:41;6.20;99.90
14378;DHT22;7272;53.668;9.578;2024-03-07T02:24:42;6.30;99.90
14378;DHT22;7272;53.668;9.578;2024-03-07T02:27:44;6.20;99.90
14378;DHT22;7272;53.668;9.578;2024-03-07T02:30:46;6.30;99.90
14378;DHT22;7272;53.668;9.578;2024-03-07T02:33:48;6.30;99.90
14378;DHT22;7272;53.668;9.578;2024-03-07T02:36:49;6.30;99.90
14378;DHT22;7272;53.668;9.578;2024-03-07T02:39:52;6.30;99.90
14378;DHT22;7272;53.668;9.578;2024-03-07T02:42:53;6.30;99.90
14378;DHT22;7272;53.668;9.578;2024-03-07T02:45:54;6.30;99.90
14378;DHT22;7272;53.668;9.578;2024-03-07T02:48:56;6.40;99.90
14378;DHT22;7272;53.668;9.578;2024-03-07T02:51:58;6.30;99.90
14378;DHT22;7272;53.668;9.578;2024-03-07T02:54:59;6.30;99.90
14378;DHT22;7272;53.668;9.578;2024-03-07T02:58:00;6.30;99.90
14378;DHT22;7272;53.668;9.578;2024-03-07T03:01:01;6.40;99.90
14378;DHT22;7272;53.668;9.578;2024-03-07T03:04:03;6.40;99.90
14378;DHT22;7272;53.668;9.578;2024-03-07T03:07:05;6.40;99.90
14378;DHT22;7272;53.668;9.578;2024-03-07T03:10:08;6.40;99.90
14378;DHT22;7272;53.668;9.578;2024-03-07T03:13:11;6.40;99.90
14378;DHT22;7272;53.668;9.578;2024-03-07T03:16:12;6.30;99.90
14378;DHT22;7272;53.668;9.578;2024-03-07T03:19:13;6.30;99.90
14378;DHT22;7272;53.668;9.578;2024-03-07T03:22:16;6.20;99.90
14378;DHT22;7272;53.668;9.578;2024-03-07T03:25:17;6.20;99.90
14378;DHT22;7272;53.668;9.578;2024-03-07T03:28:18;6.20;99.90
14378;DHT22;7272;53.668;9.578;2024-03-07T03:31:21;6.30;99.90
14378;DHT22;7272;53.668;9.578;2024-03-07T03:34:22;6.20;99.90
14378;DHT22;7272;53.668;9.578;2024-03-07T03:37:24;6.20;99.90
14378;DHT22;7272;53.668;9.578;2024-03-07T03:40:25;6.30;99.90
14378;DHT22;7272;53.668;9.578;2024-03-07T03:43:27;6.30;99.90
14378;DHT22;7272;53.668;9.578;2024-03-07T03:46:28;6.30;99.90
14378;DHT22;7272;53.668;9.578;2024-03-07T03:49:29;6.30;99.90
14378;DHT22;7272;53.668;9.578;2024-03-07T03:52:31;6.30;99.90
14378;DHT22;7272;53.668;9.578;2024-03-07T03:55:32;6.30;99.90
14378;DHT22;7272;53.668;9.578;2024-03-07T03:58:34;6.20;99.90
14378;DHT22;7272;53.668;9.578;2024-03-07T04:01:35;6.10;99.90
14378;DHT22;7272;53.668;9.578;2024-03-07T04:04:38;6.10;99.90
14378;DHT22;7272;53.668;9.578;2024-03-07T04:07:41;6.10;99.90
14378;DHT22;7272;53.668;9.578;2024-03-07T04:10:43;6.00;99.90
14378;DHT22;7272;53.668;9.578;2024-03-07T04:13:45;6.10;99.90
14378;DHT22;7272;53.668;9.578;2024-03-07T04:16:46;6.10;99.90
14378;DHT22;7272;53.668;9.578;2024-03-07T04:19:47;6.10;99.90
14378;DHT22;7272;53.668;9.578;2024-03-07T04:22:49;6.00;99.90
14378;DHT22;7272;53.668;9.578;2024-03-07T04:25:51;5.90;99.90
14378;DHT22;7272;53.668;9.578;2024-03-07T04:28:52;5.90;99.90
14378;DHT22;7272;53.668;9.578;2024-03-07T04:31:53;5.90;99.90
14378;DHT22;7272;53.668;9.578;2024-03-07T04:34:55;5.90;99.90
14378;DHT22;7272;53.668;9.578;2024-03-07T04:37:58;5.90;99.90
14378;DHT22;7272;53.668;9.578;2024-03-07T04:40:59;5.80;99.90
14378;DHT22;7272;53.668;9.578;2024-03-07T04:44:01;5.60;99.90
14378;DHT22;7272;53.668;9.578;2024-03-07T04:47:02;5.60;99.90
14378;DHT22;7272;53.668;9.578;2024-03-07T04:50:05;5.60;99.90
14378;DHT22;7272;53.668;9.578;2024-03-07T04:53:07;5.50;99.90
14378;DHT22;7272;53.668;9.578;2024-03-07T04:56:08;5.30;99.90
14378;DHT22;7272;53.668;9.578;2024-03-07T04:59:10;5.20;99.90
14378;DHT22;7272;53.668;9.578;2024-03-07T05:02:12;5.10;99.90
14378;DHT22;7272;53.668;9.578;2024-03-07T05:05:13;5.00;99.90
14378;DHT22;7272;53.668;9.578;2024-03-07T05:08:15;4.90;99.90
14378;DHT22;7272;53.668;9.578;2024-03-07T05:11:17;4.80;99.90
14378;DHT22;7272;53.668;9.578;2024-03-07T05:14:18;4.80;99.90
14378;DHT22;7272;53.668;9.578;2024-03-07T05:17:19;4.80;99.90
14378;DHT22;7272;53.668;9.578;2024-03-07T05:20:20;4.80;99.90
14378;DHT22;7272;53.668;9.578;2024-03-07T05:23:22;4.80;99.90
14378;DHT22;7272;53.668;9.578;2024-03-07T05:26:23;4.90;99.90
14378;DHT22;7272;53.668;9.578;2024-03-07T05:29:25;4.90;99.90
14378;DHT22;7272;53.668;9.578;2024-03-07T05:32:26;4.90;99.90
14378;DHT22;7272;53.668;9.578;2024-03-07T05:35:28;4.90;99.90
14378;DHT22;7272;53.668;9.578;2024-03-07T05:38:30;5.00;99.90
14378;DHT22;7272;53.668;9.578;2024-03-07T05:41:31;4.90;99.90
14378;DHT22;7272;53.668;9.578;2024-03-07T05:44:33;4.70;99.90
14378;DHT22;7272;53.668;9.578;2024-03-07T05:47:34;4.60;99.90
14378;DHT22;7272;53.668;9.578;2024-03-07T05:50:35;4.50;99.90
14378;DHT22;7272;53.668;9.578;2024-03-07T05:53:37;4.40;99.90
14378;DHT22;7272;53.668;9.578;2024-03-07T05:56:39;4.40;99.90
14378;DHT22;7272;53.668;9.578;2024-03-07T05:59:40;4.30;99.90
14378;DHT22;7272;53.668;9.578;2024-03-07T06:02:42;4.40;99.90
14378;DHT22;7272;53.668;9.578;2024-03-07T06:05:43;4.40;99.90
14378;DHT22;7272;53.668;9.578;2024-03-07T06:08:45;4.40;99.90
14378;DHT22;7272;53.668;9.578;2024-03-07T06:11:46;4.30;99.90
14378;DHT22;7272;53.668;9.578;2024-03-07T06:14:48;4.40;99.90
14378;DHT22;7272;53.668;9.578;2024-03-07T06:17:49;4.30;99.90
14378;DHT22;7272;53.668;9.578;2024-03-07T06:20:51;4.30;99.90
14378;DHT22;7272;53.668;9.578;2024-03-07T06:23:52;4.30;99.90
14378;DHT22;7272;53.668;9.578;2024-03-07T06:27:00;4.30;99.90
14378;DHT22;7272;53.668;9.578;2024-03-07T06:30:05;4.40;99.90
14378;DHT22;7272;53.668;9.578;2024-03-07T06:33:10;4.40;99.90
14378;DHT22;7272;53.668;9.578;2024-03-07T06:36:11;4.40;99.90
14378;DHT22;7272;53.668;9.578;2024-03-07T06:39:13;4.40;99.90
14378;DHT22;7272;53.668;9.578;2024-03-07T06:42:14;4.40;99.90
14378;DHT22;7272;53.668;9.578;2024-03-07T06:45:16;4.50;99.90
14378;DHT22;7272;53.668;9.578;2024-03-07T06:48:17;4.60;99.90
14378;DHT22;7272;53.668;9.578;2024-03-07T06:51:18;4.50;99.90
14378;DHT22;7272;53.668;9.578;2024-03-07T06:54:20;4.50;99.90
14378;DHT22;7272;53.668;9.578;2024-03-07T06:57:22;4.60;99.90
14378;DHT22;7272;53.668;9.578;2024-03-07T07:00:23;4.60;99.90
14378;DHT22;7272;53.668;9.578;2024-03-07T07:03:24;4.60;99.90
14378;DHT22;7272;53.668;9.578;2024-03-07T07:06:25;4.70;99.90
14378;DHT22;7272;53.668;9.578;2024-03-07T07:09:27;4.60;99.90
14378;DHT22;7272;53.668;9.578;2024-03-07T07:12:29;4.60;99.90
14378;DHT22;7272;53.668;9.578;2024-03-07T07:15:30;4.70;99.90
14378;DHT22;7272;53.668;9.578;2024-03-07T07:18:31;4.70;99.90
14378;DHT22;7272;53.668;9.578;2024-03-07T07:21:32;4.70;99.90
14378;DHT22;7272;53.668;9.578;2024-03-07T07:24:34;4.70;99.90
14378;DHT22;7272;53.668;9.578;2024-03-07T07:27:35;4.70;99.90
14378;DHT22;7272;53.668;9.578;2024-03-07T07:30:38;4.80;99.90
14378;DHT22;7272;53.668;9.578;2024-03-07T07:33:39;4.80;99.90
14378;DHT22;7272;53.668;9.578;2024-03-07T07:36:40;4.80;99.90
14378;DHT22;7272;53.668;9.578;2024-03-07T07:39:42;4.80;99.90
14378;DHT22;7272;53.668;9.578;2024-03-07T07:42:44;4.90;99.90
14378;DHT22;7272;53.668;9.578;2024-03-07T07:45:47;4.90;99.90
14378;DHT22;7272;53.668;9.578;2024-03-07T07:48:48;4.90;99.90
14378;DHT22;7272;53.668;9.578;2024-03-07T07:51:49;5.00;99.90
14378;DHT22;7272;53.668;9.578;2024-03-07T07:54:51;5.00;99.90
14378;DHT22;7272;53.668;9.578;2024-03-07T07:57:54;5.10;99.90
14378;DHT22;7272;53.668;9.578;2024-03-07T08:00:55;5.10;99.90
14378;DHT22;7272;53.668;9.578;2024-03-07T08:03:56;5.20;99.90
14378;DHT22;7272;53.668;9.578;2024-03-07T08:06:59;5.30;99.90
14378;DHT22;7272;53.668;9.578;2024-03-07T08:10:01;5.40;99.90
14378;DHT22;7272;53.668;9.578;2024-03-07T08:13:04;5.30;99.90
14378;DHT22;7272;53.668;9.578;2024-03-07T08:16:06;5.30;99.90
14378;DHT22;7272;53.668;9.578;2024-03-07T08:19:07;5.30;99.90
14378;DHT22;7272;53.668;9.578;2024-03-07T08:22:09;5.30;99.90
14378;DHT22;7272;53.668;9.578;2024-03-07T08:25:12;5.40;99.90
14378;DHT22;7272;53.668;9.578;2024-03-07T08:28:13;5.50;99.90
14378;DHT22;7272;53.668;9.578;2024-03-07T08:31:15;5.60;99.90
14378;DHT22;7272;53.668;9.578;2024-03-07T08:34:16;5.70;99.90
14378;DHT22;7272;53.668;9.578;2024-03-07T08:37:17;5.80;99.90
14378;DHT22;7272;53.668;9.578;2024-03-07T08:40:20;5.80;99.90
14378;DHT22;7272;53.668;9.578;2024-03-07T08:43:21;5.70;99.90
14378;DHT22;7272;53.668;9.578;2024-03-07T08:46:22;5.70;99.90
14378;DHT22;7272;53.668;9.578;2024-03-07T08:49:24;5.80;99.90
14378;DHT22;7272;53.668;9.578;2024-03-07T08:52:25;5.80;99.90
14378;DHT22;7272;53.668;9.578;2024-03-07T08:55:27;6.00;99.90
14378;DHT22;7272;53.668;9.578;2024-03-07T08:58:28;6.30;99.90
14378;DHT22;7272;53.668;9.578;2024-03-07T09:01:29;6.60;99.90
14378;DHT22;7272;53.668;9.578;2024-03-07T09:04:30;6.70;99.90
14378;DHT22;7272;53.668;9.578;2024-03-07T09:07:32;6.50;99.90
14378;DHT22;7272;53.668;9.578;2024-03-07T09:10:34;6.40;99.90
14378;DHT22;7272;53.668;9.578;2024-03-07T09:13:35;6.60;99.90
14378;DHT22;7272;53.668;9.578;2024-03-07T09:16:37;6.60;99.90
14378;DHT22;7272;53.668;9.578;2024-03-07T09:19:39;6.70;99.90
14378;DHT22;7272;53.668;9.578;2024-03-07T09:22:40;6.80;99.90
14378;DHT22;7272;53.668;9.578;2024-03-07T09:25:42;7.10;99.90
14378;DHT22;7272;53.668;9.578;2024-03-07T09:28:43;7.00;99.90
14378;DHT22;7272;53.668;9.578;2024-03-07T09:31:45;7.00;99.90
14378;DHT22;7272;53.668;9.578;2024-03-07T09:34:47;7.10;99.90
14378;DHT22;7272;53.668;9.578;2024-03-07T09:37:48;6.90;99.90
14378;DHT22;7272;53.668;9.578;2024-03-07T09:40:50;6.80;99.90
14378;DHT22;7272;53.668;9.578;2024-03-07T09:43:52;7.00;99.90
14378;DHT22;7272;53.668;9.578;2024-03-07T09:46:55;7.40;99.90
14378;DHT22;7272;53.668;9.578;2024-03-07T09:49:58;7.70;99.90
14378;DHT22;7272;53.668;9.578;2024-03-07T09:53:00;7.90;99.90
14378;DHT22;7272;53.668;9.578;2024-03-07T09:56:04;8.10;99.90
14378;DHT22;7272;53.668;9.578;2024-03-07T09:59:11;8.60;99.90
14378;DHT22;7272;53.668;9.578;2024-03-07T10:02:13;8.40;99.90
14378;DHT22;7272;53.668;9.578;2024-03-07T10:05:17;7.90;99.90
14378;DHT22;7272;53.668;9.578;2024-03-07T10:08:20;7.60;99.90
14378;DHT22;7272;53.668;9.578;2024-03-07T10:11:23;7.60;99.90
14378;DHT22;7272;53.668;9.578;2024-03-07T10:14:25;8.00;99.90
14378;DHT22;7272;53.668;9.578;2024-03-07T10:17:26;8.40;99.90
14378;DHT22;7272;53.668;9.578;2024-03-07T10:20:28;8.70;99.90
14378;DHT22;7272;53.668;9.578;2024-03-07T10:23:29;8.60;99.90
14378;DHT22;7272;53.668;9.578;2024-03-07T10:26:32;8.30;99.90
14378;DHT22;7272;53.668;9.578;2024-03-07T10:29:34;7.90;99.90
14378;DHT22;7272;53.668;9.578;2024-03-07T10:32:36;8.10;99.90
14378;DHT22;7272;53.668;9.578;2024-03-07T10:35:37;8.40;99.90
14378;DHT22;7272;53.668;9.578;2024-03-07T10:38:39;8.60;99.90
14378;DHT22;7272;53.668;9.578;2024-03-07T10:41:45;8.40;99.90
14378;DHT22;7272;53.668;9.578;2024-03-07T10:44:48;7.90;99.90
14378;DHT22;7272;53.668;9.578;2024-03-07T10:47:54;7.60;99.90
14378;DHT22;7272;53.668;9.578;2024-03-07T10:51:05;7.30;99.90
14378;DHT22;7272;53.668;9.578;2024-03-07T10:54:17;7.30;99.90
14378;DHT22;7272;53.668;9.578;2024-03-07T10:57:29;7.40;99.90
14378;DHT22;7272;53.668;9.578;2024-03-07T11:00:33;7.40;99.90
14378;DHT22;7272;53.668;9.578;2024-03-07T11:03:36;7.40;99.90
14378;DHT22;7272;53.668;9.578;2024-03-07T11:06:39;7.20;99.90
14378;DHT22;7272;53.668;9.578;2024-03-07T11:09:43;7.10;99.90
14378;DHT22;7272;53.668;9.578;2024-03-07T11:12:48;7.00;99.90
14378;DHT22;7272;53.668;9.578;2024-03-07T11:15:51;7.00;99.90
14378;DHT22;7272;53.668;9.578;2024-03-07T11:19:20;7.10;99.90
14378;DHT22;7272;53.668;9.578;2024-03-07T11:22:28;7.10;99.90
14378;DHT22;7272;53.668;9.578;2024-03-07T11:25:29;7.00;99.90
14378;DHT22;7272;53.668;9.578;2024-03-07T11:28:31;6.90;99.90
14378;DHT22;7272;53.668;9.578;2024-03-07T11:31:38;6.70;99.90
14378;DHT22;7272;53.668;9.578;2024-03-07T11:34:41;6.80;99.90
14378;DHT22;7272;53.668;9.578;2024-03-07T11:37:43;6.90;99.90
14378;DHT22;7272;53.668;9.578;2024-03-07T11:40:50;7.00;99.90
14378;DHT22;7272;53.668;9.578;2024-03-07T11:43:53;7.10;99.90
14378;DHT22;7272;53.668;9.578;2024-03-07T11:46:56;7.30;99.90
14378;DHT22;7272;53.668;9.578;2024-03-07T11:49:57;7.40;99.90
14378;DHT22;7272;53.668;9.578;2024-03-07T11:52:59;7.50;99.90
14378;DHT22;7272;53.668;9.578;2024-03-07T11:56:00;7.50;99.90
14378;DHT22;7272;53.668;9.578;2024-03-07T11:59:12;7.60;99.90
14378;DHT22;7272;53.668;9.578;2024-03-07T12:02:13;7.50;99.90
14378;DHT22;7272;53.668;9.578;2024-03-07T12:05:15;7.50;99.90
14378;DHT22;7272;53.668;9.578;2024-03-07T12:08:18;7.50;99.90
14378;DHT22;7272;53.668;9.578;2024-03-07T12:11:19;7.70;99.90
14378;DHT22;7272;53.668;9.578;2024-03-07T12:14:22;7.70;99.90
14378;DHT22;7272;53.668;9.578;2024-03-07T12:17:24;7.60;99.90
14378;DHT22;7272;53.668;9.578;2024-03-07T12:20:25;7.70;99.90
14378;DHT22;7272;53.668;9.578;2024-03-07T12:23:31;7.70;99.90
14378;DHT22;7272;53.668;9.578;2024-03-07T12:26:34;7.80;99.90
14378;DHT22;7272;53.668;9.578;2024-03-07T12:29:36;7.70;99.90
14378;DHT22;7272;53.668;9.578;2024-03-07T12:32:46;7.80;99.90
14378;DHT22;7272;53.668;9.578;2024-03-07T12:35:49;7.90;99.90
14378;DHT22;7272;53.668;9.578;2024-03-07T12:38:55;8.00;99.90
14378;DHT22;7272;53.668;9.578;2024-03-07T12:41:57;8.00;99.90
14378;DHT22;7272;53.668;9.578;2024-03-07T12:44:59;8.00;99.90
14378;DHT22;7272;53.668;9.578;2024-03-07T12:48:00;8.10;99.90
14378;DHT22;7272;53.668;9.578;2024-03-07T12:51:05;8.20;99.90
14378;DHT22;7272;53.668;9.578;2024-03-07T12:54:06;8.40;99.90
14378;DHT22;7272;53.668;9.578;2024-03-07T12:57:10;8.50;99.90
14378;DHT22;7272;53.668;9.578;2024-03-07T13:00:13;8.50;99.90
14378;DHT22;7272;53.668;9.578;2024-03-07T13:03:19;8.50;99.90
14378;DHT22;7272;53.668;9.578;2024-03-07T13:06:20;8.50;99.90
14378;DHT22;7272;53.668;9.578;2024-03-07T13:09:26;8.60;99.90
14378;DHT22;7272;53.668;9.578;2024-03-07T13:12:27;8.60;99.90
14378;DHT22;7272;53.668;9.578;2024-03-07T13:15:31;8.60;99.90
14378;DHT22;7272;53.668;9.578;2024-03-07T13:18:32;8.60;99.90
14378;DHT22;7272;53.668;9.578;2024-03-07T13:21:34;8.60;99.90
14378;DHT22;7272;53.668;9.578;2024-03-07T13:24:36;8.50;99.90
14378;DHT22;7272;53.668;9.578;2024-03-07T13:27:37;8.60;99.90
14378;DHT22;7272;53.668;9.578;2024-03-07T13:30:41;8.60;99.90
14378;DHT22;7272;53.668;9.578;2024-03-07T13:33:44;8.70;99.90
14378;DHT22;7272;53.668;9.578;2024-03-07T13:36:45;8.70;99.90
14378;DHT22;7272;53.668;9.578;2024-03-07T13:39:46;8.80;99.90
14378;DHT22;7272;53.668;9.578;2024-03-07T13:42:48;8.90;99.90
14378;DHT22;7272;53.668;9.578;2024-03-07T13:45:50;9.00;99.90
14378;DHT22;7272;53.668;9.578;2024-03-07T13:48:52;9.00;99.90
14378;DHT22;7272;53.668;9.578;2024-03-07T13:51:53;8.90;99.90
14378;DHT22;7272;53.668;9.578;2024-03-07T13:55:00;8.90;99.90
14378;DHT22;7272;53.668;9.578;2024-03-07T13:58:05;8.90;99.90
14378;DHT22;7272;53.668;9.578;2024-03-07T14:01:25;8.80;99.90
14378;DHT22;7272;53.668;9.578;2024-03-07T14:04:47;8.60;99.90
14378;DHT22;7272;53.668;9.578;2024-03-07T14:08:01;8.60;99.90
14378;DHT22;7272;53.668;9.578;2024-03-07T14:11:52;8.60;99.90
14378;DHT22;7272;53.668;9.578;2024-03-07T14:22:33;8.70;99.90
14378;DHT22;7272;53.668;9.578;2024-03-07T14:25:51;8.70;99.90
14378;DHT22;7272;53.668;9.578;2024-03-07T14:29:05;8.80;99.90
14378;DHT22;7272;53.668;9.578;2024-03-07T14:32:15;8.70;99.90
14378;DHT22;7272;53.668;9.578;2024-03-07T14:35:22;8.70;99.90
14378;DHT22;7272;53.668;9.578;2024-03-07T14:38:27;8.70;99.90
14378;DHT22;7272;53.668;9.578;2024-03-07T14:41:43;8.60;99.90
14378;DHT22;7272;53.668;9.578;2024-03-07T14:44:47;8.60;99.90
14378;DHT22;7272;53.668;9.578;2024-03-07T14:47:50;8.70;99.90
14378;DHT22;7272;53.668;9.578;2024-03-07T14:50:53;8.80;99.90
14378;DHT22;7272;53.668;9.578;2024-03-07T14:53:55;9.10;99.90
14378;DHT22;7272;53.668;9.578;2024-03-07T14:56:56;9.30;99.90
14378;DHT22;7272;53.668;9.578;2024-03-07T14:59:57;9.40;99.90
14378;DHT22;7272;53.668;9.578;2024-03-07T15:02:59;9.30;99.90
14378;DHT22;7272;53.668;9.578;2024-03-07T15:06:01;9.30;99.90
14378;DHT22;7272;53.668;9.578;2024-03-07T15:09:03;9.30;99.90
14378;DHT22;7272;53.668;9.578;2024-03-07T15:12:05;9.50;99.90
14378;DHT22;7272;53.668;9.578;2024-03-07T15:15:08;9.50;99.90
14378;DHT22;7272;53.668;9.578;2024-03-07T15:18:14;9.40;99.90
14378;DHT22;7272;53.668;9.578;2024-03-07T15:21:16;9.20;99.90
14378;DHT22;7272;53.668;9.578;2024-03-07T15:24:18;9.20;99.90
14378;DHT22;7272;53.668;9.578;2024-03-07T15:27:21;9.30;99.90
14378;DHT22;7272;53.668;9.578;2024-03-07T15:30:24;9.30;99.90
14378;DHT22;7272;53.668;9.578;2024-03-07T15:33:25;9.40;99.90
14378;DHT22;7272;53.668;9.578;2024-03-07T15:36:27;9.60;99.90
14378;DHT22;7272;53.668;9.578;2024-03-07T15:39:29;9.70;99.90
14378;DHT22;7272;53.668;9.578;2024-03-07T15:42:31;9.70;99.90
14378;DHT22;7272;53.668;9.578;2024-03-07T15:45:32;9.60;99.90
14378;DHT22;7272;53.668;9.578;2024-03-07T15:48:34;9.60;99.90
14378;DHT22;7272;53.668;9.578;2024-03-07T15:51:38;9.80;99.90
14378;DHT22;7272;53.668;9.578;2024-03-07T15:54:39;9.80;99.90
14378;DHT22;7272;53.668;9.578;2024-03-07T15:57:42;9.70;99.90
14378;DHT22;7272;53.668;9.578;2024-03-07T16:00:44;9.70;99.90
14378;DHT22;7272;53.668;9.578;2024-03-07T16:03:47;9.80;99.90
14378;DHT22;7272;53.668;9.578;2024-03-07T16:06:49;9.80;99.90
14378;DHT22;7272;53.668;9.578;2024-03-07T16:09:50;9.70;99.90
14378;DHT22;7272;53.668;9.578;2024-03-07T16:12:54;9.70;99.90
14378;DHT22;7272;53.668;9.578;2024-03-07T16:15:58;9.80;99.90
14378;DHT22;7272;53.668;9.578;2024-03-07T16:19:00;9.80;99.90
14378;DHT22;7272;53.668;9.578;2024-03-07T16:22:02;9.70;99.90
14378;DHT22;7272;53.668;9.578;2024-03-07T16:25:07;9.60;99.90
14378;DHT22;7272;53.668;9.578;2024-03-07T16:28:08;9.50;99.90
14378;DHT22;7272;53.668;9.578;2024-03-07T16:31:11;9.30;99.90
14378;DHT22;7272;53.668;9.578;2024-03-07T16:34:13;9.00;99.90
14378;DHT22;7272;53.668;9.578;2024-03-07T16:37:15;8.80;99.90
14378;DHT22;7272;53.668;9.578;2024-03-07T16:40:18;8.70;99.90
14378;DHT22;7272;53.668;9.578;2024-03-07T16:43:19;8.60;99.90
14378;DHT22;7272;53.668;9.578;2024-03-07T16:46:25;8.50;99.90
14378;DHT22;7272;53.668;9.578;2024-03-07T16:49:26;8.40;99.90
14378;DHT22;7272;53.668;9.578;2024-03-07T16:52:28;8.30;99.90
14378;DHT22;7272;53.668;9.578;2024-03-07T16:55:29;8.20;99.90
14378;DHT22;7272;53.668;9.578;2024-03-07T16:58:30;8.10;99.90
14378;DHT22;7272;53.668;9.578;2024-03-07T17:01:34;8.00;99.90
14378;DHT22;7272;53.668;9.578;2024-03-07T17:04:36;7.90;99.90
14378;DHT22;7272;53.668;9.578;2024-03-07T17:07:38;7.90;99.90
14378;DHT22;7272;53.668;9.578;2024-03-07T17:10:40;7.80;99.90
14378;DHT22;7272;53.668;9.578;2024-03-07T17:13:42;7.70;99.90
14378;DHT22;7272;53.668;9.578;2024-03-07T17:16:43;7.70;99.90
14378;DHT22;7272;53.668;9.578;2024-03-07T17:19:44;7.60;99.90
14378;DHT22;7272;53.668;9.578;2024-03-07T17:22:48;7.60;99.90
14378;DHT22;7272;53.668;9.578;2024-03-07T17:25:49;7.50;99.90
14378;DHT22;7272;53.668;9.578;2024-03-07T17:28:54;7.40;99.90
14378;DHT22;7272;53.668;9.578;2024-03-07T17:31:56;7.40;99.90
14378;DHT22;7272;53.668;9.578;2024-03-07T17:34:57;7.30;99.90
14378;DHT22;7272;53.668;9.578;2024-03-07T17:37:59;7.20;99.90
14378;DHT22;7272;53.668;9.578;2024-03-07T17:41:02;7.10;99.90
14378;DHT22;7272;53.668;9.578;2024-03-07T17:44:05;7.10;99.90
14378;DHT22;7272;53.668;9.578;2024-03-07T17:47:11;7.00;99.90
14378;DHT22;7272;53.668;9.578;2024-03-07T17:50:12;6.90;99.90
14378;DHT22;7272;53.668;9.578;2024-03-07T17:53:17;6.80;99.90
14378;DHT22;7272;53.668;9.578;2024-03-07T17:56:20;6.80;99.90
14378;DHT22;7272;53.668;9.578;2024-03-07T17:59:24;6.70;99.90
14378;DHT22;7272;53.668;9.578;2024-03-07T18:02:25;6.70;99.90
14378;DHT22;7272;53.668;9.578;2024-03-07T18:05:29;6.60;99.90
14378;DHT22;7272;53.668;9.578;2024-03-07T18:08:31;6.60;99.90
14378;DHT22;7272;53.668;9.578;2024-03-07T18:11:35;6.50;99.90
14378;DHT22;7272;53.668;9.578;2024-03-07T18:14:36;6.50;99.90
14378;DHT22;7272;53.668;9.578;2024-03-07T18:17:38;6.50;99.90
14378;DHT22;7272;53.668;9.578;2024-03-07T18:20:40;6.40;99.90
14378;DHT22;7272;53.668;9.578;2024-03-07T18:23:42;6.30;99.90
14378;DHT22;7272;53.668;9.578;2024-03-07T18:26:44;6.30;99.90
14378;DHT22;7272;53.668;9.578;2024-03-07T18:29:48;6.30;99.90
14378;DHT22;7272;53.668;9.578;2024-03-07T18:32:49;6.30;99.90
14378;DHT22;7272;53.668;9.578;2024-03-07T18:35:50;6.20;99.90
14378;DHT22;7272;53.668;9.578;2024-03-07T18:38:52;6.20;99.90
14378;DHT22;7272;53.668;9.578;2024-03-07T18:41:53;6.10;99.90
14378;DHT22;7272;53.668;9.578;2024-03-07T18:44:54;6.10;99.90
14378;DHT22;7272;53.668;9.578;2024-03-07T18:47:58;6.00;99.90
14378;DHT22;7272;53.668;9.578;2024-03-07T18:50:59;5.90;99.90
14378;DHT22;7272;53.668;9.578;2024-03-07T18:54:06;5.90;99.90
14378;DHT22;7272;53.668;9.578;2024-03-07T18:57:08;5.90;99.90
14378;DHT22;7272;53.668;9.578;2024-03-07T19:00:13;5.80;99.90
14378;DHT22;7272;53.668;9.578;2024-03-07T19:03:28;5.80;99.90
14378;DHT22;7272;53.668;9.578;2024-03-07T19:06:29;5.80;99.90
14378;DHT22;7272;53.668;9.578;2024-03-07T19:09:37;5.70;99.90
14378;DHT22;7272;53.668;9.578;2024-03-07T19:12:39;5.70;99.90
14378;DHT22;7272;53.668;9.578;2024-03-07T19:15:41;5.60;99.90
14378;DHT22;7272;53.668;9.578;2024-03-07T19:18:42;5.60;99.90
14378;DHT22;7272;53.668;9.578;2024-03-07T19:21:44;5.60;99.90
14378;DHT22;7272;53.668;9.578;2024-03-07T19:24:46;5.60;99.90
14378;DHT22;7272;53.668;9.578;2024-03-07T19:27:49;5.50;99.90
14378;DHT22;7272;53.668;9.578;2024-03-07T19:30:51;5.50;99.90
14378;DHT22;7272;53.668;9.578;2024-03-07T19:33:52;5.40;99.90
14378;DHT22;7272;53.668;9.578;2024-03-07T19:36:53;5.40;99.90
14378;DHT22;7272;53.668;9.578;2024-03-07T19:39:55;5.50;99.90
14378;DHT22;7272;53.668;9.578;2024-03-07T19:42:58;5.40;99.90
14378;DHT22;7272;53.668;9.578;2024-03-07T19:46:02;5.30;99.90
14378;DHT22;7272;53.668;9.578;2024-03-07T19:49:04;5.40;99.90
14378;DHT22;7272;53.668;9.578;2024-03-07T19:52:06;5.30;99.90
14378;DHT22;7272;53.668;9.578;2024-03-07T19:55:11;5.30;99.90
14378;DHT22;7272;53.668;9.578;2024-03-07T19:58:12;5.30;99.90
14378;DHT22;7272;53.668;9.578;2024-03-07T20:01:14;5.30;99.90